Portada
METAR-TAF:

METAR-TAF

Aeroports :

Xi'an, Xina

latitud: 34-26N, longitud: 108-45E, altitud: 479 m

Observació

L'informe es va fer fa 1 hora i 17 minuts, a les 01:00 UTC
Vent 12 kt del Nord-Est
Temperatura 20°C
Humitat 64%
Pressió 1009 hPa
Visibilitat: 8000 m

METAR: ZLXY 180100Z 05006MPS 8000 NSC 20/13 Q1009 NOSIG

Hora: 10:17 (02:17 UTC)

Pronòstic

L'informe es va fer fa 5 hores i 16 minuts, a les 21:01 UTC
Pronòstic vàlid del 18 a les 00 UTC al 18 a les 24 UTC
Vent 8 kt del Est/Nord-Est amb ràfegues de 21 kt
Visibilitat: 5000 m
calitja
Evolucionant progressivament
l' 18 a les 13 UTC al 18 a les 14 UTC
Escasses núvols a una alçada de 4000 ft, Cumulonimbus.
Cel cobert a una alçada de 5000 ft
xàfecs de pluja,

TAF: ZLXY 172101Z 1800/1824 06004G11MPS 5000 HZ NSC TX29/1807Z TN16/1822Z BECMG 1813/1814 SHRA FEW040CB OVC050

Observacions i pronòstics meteorològics de més de 4000 aeroports (METAR i TAF).

Les estacions disponibles són els punts grocs i vermells al mapa.

Posi el ratolí al punt desitjat per veure el nom de l'estació.

Feu clic per veure les observacions i els pronòstics meteorològics.

Per canviar el mapa: feu clic els botons verds amb una creu de color negre per apropar; al botó verd amb un guió per allunyar la imatge; o en les fletxes verdes per a mapes adjacents.


METAR-TAF: